Station: Onslow Airport  

  Atmospheric Gas Attenuation - ITU Rec 676-11   ----------------- dB/100km -----------------
Date Time Temp RH % AH g/m3 Dew Point Wind Direction Speed kph Gust kph Barometer mB Rainfall Since 9am 24GHz 47GHz 76GHz 122GHz 134GHz 241GHz
08/05 09:20 25.8 30 7.22 6.9 43 48 1019.2 0 16.2 21.0 29.9 78.2 69.8 239.6
08/05 09:10 25.6 28 6.67 5.8 46 54 1019.1 0 15.0 20.3 28.2 73.6 64.1 219.5
08/05 09:00 25.2 30 6.98 6.4 46 57 1019.1 0 15.7 20.8 29.4 76.7 67.7 232.2
08/05 08:50 25.1 29 6.71 5.8 46 57 1019.2 0 15.1 20.5 28.5 74.4 64.9 222.4
08/05 08:40 24.3 32 7.08 6.6 35 39 1019.2 0 15.9 21.2 30.0 78.4 69.6 238.6
08/05 08:30 24.5 32 7.16 6.7 35 46 1019.1 0 16.1 21.2 30.2 78.9 70.3 241.1
08/05 08:20 24.2 32 7.04 6.5 37 43 1018.9 0 15.8 21.1 29.9 78.1 69.2 237.3
08/05 08:10 24.3 30 6.64 5.6 44 52 1018.8 0 15.0 20.6 28.6 74.5 64.8 221.8
08/05 08:00 23.9 33 7.14 6.7 32 41 1018.9 0 16.1 21.3 30.3 79.3 70.5 242.0
08/05 07:50 23.6 33 7.02 6.4 32 35 1018.8 0 15.8 21.2 30.1 78.5 69.5 238.2
08/05 07:40 23.4 33 6.94 6.2 32 35 1018.7 0 15.7 21.2 29.9 78.0 68.8 235.7
08/05 07:30 23 35 7.19 6.7 28 37 1018.7 0 16.2 21.6 30.8 80.6 71.9 246.6
08/05 07:20 22.7 35 7.07 6.5 30 32 1018.5 0 16.0 21.5 30.5 79.8 70.8 242.7
08/05 07:10 22.4 35 6.95 6.2 30 32 1018.5 0 15.7 21.4 30.2 79.0 69.7 238.9
08/05 07:00 22.6 33 6.63 5.5 32 37 1018.2 0 15.1 20.9 29.1 75.9 66.0 225.9
08/05 06:50 22.4 35 6.95 6.2 32 37 1018.2 0 15.7 21.4 30.2 79.0 69.7 238.9
08/05 06:40 22.2 36 7.07 6.4 26 28 1018.1 0 16.0 21.6 30.7 80.2 71.2 244.1
08/05 06:30 22.2 35 6.87 6 24 30 1018 0 15.6 21.3 30.0 78.4 69.0 236.3
08/05 06:20 21.9 38 7.33 7 24 26 1017.8 0 16.5 22.0 31.7 82.9 74.4 255.3
08/05 06:10 21.9 37 7.14 6.6 24 28 1017.8 0 16.1 21.8 31.0 81.1 72.2 247.7
08/05 06:00 22.1 36 7.03 6.3 28 32 1017.6 0 15.9 21.5 30.6 79.9 70.8 242.7
08/05 05:50 22 37 7.18 6.7 28 32 1017.6 0 16.2 21.8 31.1 81.4 72.6 249.0
08/05 05:40 22.2 37 7.26 6.8 28 28 1017.5 0 16.4 21.8 31.3 81.9 73.3 251.5
08/05 05:30 22.4 37 7.35 7 30 35 1017.3 0 16.6 21.9 31.6 82.5 74.1 254.4
08/05 05:20 22.6 35 7.03 6.4 32 35 1017.2 0 15.9 21.4 30.4 79.4 70.4 241.2
08/05 05:10 22.6 37 7.43 7.2 30 33 1017.1 0 16.7 22.0 31.7 83.0 74.8 256.9
08/05 05:00 22.8 37 7.52 7.4 30 35 1017.1 0 16.9 22.0 32.0 83.6 75.6 259.8
08/05 04:50 23.1 34 7.03 6.4 32 35 1017.1 0 15.9 21.3 30.2 78.9 69.9 239.7
08/05 04:40 23.2 34 7.07 6.5 33 35 1017.2 0 16.0 21.3 30.3 79.2 70.3 241.0
08/05 04:30 23.1 36 7.44 7.2 28 37 1017.1 0 16.7 21.9 31.6 82.6 74.5 255.7
08/05 04:20 22.6 40 8.03 8.3 24 26 1017.1 0 18.0 22.8 33.8 88.6 81.7 280.9
08/05 04:10 22.8 39 7.92 8.1 28 32 1017.1 0 17.7 22.6 33.4 87.3 80.2 275.8
08/05 04:00 22.6 39 7.83 8 26 32 1017 0 17.6 22.5 33.1 86.7 79.4 272.8
08/05 03:50 22.9 38 7.77 7.8 28 32 1017 0 17.4 22.4 32.8 85.8 78.4 269.4
08/05 03:40 22.8 39 7.92 8.1 28 32 1017 0 17.7 22.6 33.4 87.3 80.2 275.7
08/05 03:30 22.9 40 8.17 8.6 28 33 1016.9 0 18.3 22.9 34.2 89.5 82.9 285.4
08/05 03:20 23 39 8.02 8.3 30 33 1016.9 0 17.9 22.7 33.6 88.0 81.1 279.0
08/05 03:10 23.1 40 8.27 8.8 30 32 1016.9 0 18.5 23.0 34.4 90.2 83.9 288.8
08/05 03:00 23.2 40 8.32 8.9 26 32 1017 0 18.6 23.1 34.6 90.6 84.4 290.5
08/05 02:50 22.9 41 8.38 9 26 28 1017 0 18.7 23.2 34.9 91.5 85.4 294.0
08/05 02:40 22.8 44 8.94 9.9 26 28 1016.9 0 19.9 24.1 37.0 96.9 92.1 317.4
08/05 02:30 22.9 44 8.99 10 26 30 1017 0 20.0 24.1 37.1 97.3 92.5 319.1
08/05 02:20 23.1 45 9.3 10.5 26 28 1016.9 0 20.6 24.5 38.1 100.0 96.0 331.2
08/05 02:10 23.2 45 9.35 10.6 24 26 1017 0 20.7 24.6 38.3 100.4 96.5 332.9
08/05 02:00 23.2 48 9.98 11.6 22 28 1017.2 0 22.0 25.5 40.6 106.6 104.1 359.6
08/05 01:50 23.5 45 9.52 10.9 22 26 1017.3 0 21.1 24.7 38.7 101.7 98.2 338.9
08/05 01:40 23.8 46 9.89 11.5 24 26 1017.4 0 21.8 25.2 40.0 105.0 102.3 353.2
08/05 01:30 23.5 49 10.36 12.2 26 32 1017.3 0 22.8 26.0 41.9 110.0 108.4 374.6
08/05 01:20 23.2 56 11.64 13.9 28 30 1017.4 0 25.5 28.1 46.9 123.6 125.0 432.6
08/05 01:10 22.9 62 12.67 15.2 20 20 1017.3 0 27.7 29.8 51.2 135.1 139.0 481.6
08/05 01:00 22.7 68 13.74 16.5 17 20 1017.3 0 30.0 31.7 55.8 147.3 153.9 533.7
08/05 00:50 22.6 69 13.86 16.6 15 17 1017.2 0 30.2 31.9 56.4 148.8 155.8 540.2
08/05 00:40 22.3 70 13.82 16.6 15 17 1017.2 0 30.2 32.0 56.4 148.9 155.9 540.3
08/05 00:30 22.1 73 14.25 17 17 17 1017 0 31.1 32.8 58.4 154.2 162.3 562.8
08/05 00:20 22.1 73 14.25 17 17 17 1017 0 31.1 32.8 58.4 154.2 162.3 562.8
08/05 00:10 22 74 14.36 17.2 15 15 1017 0 31.3 33.0 59.0 155.7 164.1 569.0
08/05 00:00 21.9 76 14.66 17.5 15 17 1017.2 0 32.0 33.6 60.4 159.4 168.6 584.8
07/05 23:50 21.9 77 14.86 17.7 15 17 1017.2 0 32.4 33.9 61.3 161.7 171.5 594.8
07/05 23:40 21.7 80 15.26 18.1 15 17 1017.2 0 33.3 34.7 63.2 166.9 177.8 616.7
07/05 23:30 21.7 81 15.45 18.3 15 17 1017.3 0 33.7 35.1 64.1 169.2 180.6 626.5
07/05 23:20 21.8 82 15.73 18.6 13 15 1017.4 0 34.3 35.6 65.3 172.4 184.5 640.2
07/05 23:10 21.7 83 15.83 18.7 13 13 1017.4 0 34.5 35.8 65.8 173.8 186.3 646.2
07/05 23:00 21.8 81 15.54 18.4 9 11 1017.4 0 33.9 35.2 64.4 170.1 181.7 630.4
07/05 22:50 22 80 15.53 18.4 11 11 1017.5 0 33.8 35.1 64.2 169.5 181.1 628.3
07/05 22:40 21.9 80 15.44 18.3 9 9 1017.5 0 33.7 35.0 63.9 168.7 180.0 624.5
07/05 22:30 21.9 81 15.63 18.5 9 9 1017.4 0 34.1 35.3 64.7 170.9 182.8 634.2
07/05 22:20 22.1 82 16.01 18.9 7 9 1017.4 0 34.8 35.9 66.3 175.1 188.0 652.2
07/05 22:10 22.3 82 16.19 19.1 7 7 1017.5 0 35.2 36.2 66.9 176.8 190.1 659.8
07/05 22:00 22.4 82 16.28 19.2 7 9 1017.5 0 35.4 36.3 67.3 177.7 191.2 663.7
07/05 21:50 22.6 83 16.67 19.6 6 6 1017.4 0 36.2 36.9 68.9 182.0 196.6 682.2
07/05 21:40 22.6 82 16.47 19.4 2 4 1017.4 0 35.8 36.6 67.9 179.5 193.6 671.8
07/05 21:30 22.7 82 16.57 19.5 7 7 1017.3 0 36.0 36.7 68.3 180.5 194.8 676.1
07/05 21:20 22.6 81 16.27 19.2 7 7 1017.2 0 35.4 36.2 67.0 177.0 190.5 661.3
07/05 21:10 23 79 16.24 19.2 6 7 1017.1 0 35.3 36.0 66.5 175.7 189.1 656.2
07/05 21:00 23.4 78 16.4 19.3 7 9 1017 0 35.6 36.1 66.9 176.7 190.4 661.0
07/05 20:50 23.2 79 16.42 19.4 7 9 1017 0 35.6 36.2 67.2 177.4 191.2 663.7
07/05 20:40 23 79 16.24 19.2 7 7 1016.9 0 35.3 36.0 66.5 175.7 189.0 656.1
07/05 20:30 23 79 16.24 19.2 7 9 1016.9 0 35.3 36.0 66.5 175.7 189.0 656.1
07/05 20:20 22.7 80 16.16 19.1 7 9 1016.7 0 35.1 35.9 66.4 175.4 188.6 654.5
07/05 20:10 23.1 78 16.12 19.1 7 7 1016.6 0 35.0 35.7 65.9 174.0 187.0 648.9
07/05 20:00 23.7 77 16.47 19.4 7 9 1016.6 0 35.7 36.1 66.9 176.8 190.6 661.8
07/05 19:50 23.8 77 16.56 19.5 7 9 1016.4 0 35.9 36.2 67.2 177.7 191.7 665.4
07/05 19:40 24.1 75 16.41 19.4 7 7 1016.2 0 35.5 35.8 66.3 175.1 188.7 655.1
07/05 19:30 24.4 76 16.91 19.9 9 11 1016 0 36.6 36.5 68.3 180.4 195.3 678.0
07/05 19:20 24.5 75 16.78 19.8 9 11 1015.9 0 36.3 36.3 67.6 178.6 193.1 670.4
07/05 19:10 24.6 75 16.88 19.9 9 11 1015.8 0 36.5 36.4 67.9 179.5 194.3 674.6
07/05 19:00 24.6 74 16.65 19.7 9 13 1015.7 0 36.0 36.0 66.9 176.8 190.9 662.8
07/05 18:50 24.7 72 16.3 19.3 9 9 1015.6 0 35.2 35.3 65.2 172.4 185.5 644.1
07/05 18:40 25 69 15.88 19.1 9 11 1015.6 0 34.3 34.4 63.2 166.8 178.8 620.7
07/05 18:30 25.3 69 16.15 19.2 11 13 1015.4 0 34.9 34.8 64.1 169.3 181.9 631.5
07/05 18:20 25.5 68 16.1 19.2 11 13 1015.3 0 34.8 34.6 63.7 168.3 180.7 627.4
07/05 18:10 25.7 66 15.8 18.9 11 13 1015.2 0 34.1 34.0 62.2 164.4 176.0 611.0
07/05 18:00 25.8 67 16.13 19.2 13 17 1015.1 0 34.8 34.5 63.6 167.9 180.4 626.3
07/05 17:50 26.2 65 16 19.1 13 17 1015 0 34.5 34.1 62.7 165.6 177.6 616.7
07/05 17:40 26.5 63 15.77 18.9 13 17 1015 0 34.0 33.6 61.4 162.3 173.7 603.1
07/05 17:30 26.9 60 15.36 18.7 17 20 1015 0 33.1 32.8 59.4 156.9 167.2 580.4
07/05 17:20 27.2 59 15.35 18.5 17 20 1014.9 0 33.0 32.7 59.1 156.2 166.4 577.7
07/05 17:10 27.4 58 15.26 18.4 20 24 1014.9 0 32.8 32.4 58.6 154.8 164.7 571.9
07/05 17:00 27.6 57 15.16 18.3 20 28 1014.9 0 32.6 32.2 58.0 153.3 163.0 565.8
07/05 16:50 27.9 53 14.34 17.7 20 24 1014.9 0 30.9 30.7 54.5 143.9 151.5 525.7

Last Refresh: 08-May-2026 11:04:28

Bureau of Meteorology